createdAt,value
2023-05-22T00:00:21.246Z,34.76
2023-05-22T00:01:51.522Z,34.77
2023-05-22T00:02:59.970Z,34.77
2023-05-22T00:04:08.434Z,34.77
2023-05-22T00:05:17.948Z,34.77
2023-05-22T00:06:25.717Z,34.77
2023-05-22T00:07:33.509Z,34.77
2023-05-22T00:08:40.705Z,34.77
2023-05-22T00:09:49.402Z,34.78
2023-05-22T00:10:56.937Z,34.77
2023-05-22T00:12:05.940Z,34.77
2023-05-22T00:13:14.355Z,34.77
2023-05-22T00:14:21.928Z,34.76
2023-05-22T00:15:29.751Z,34.76
2023-05-22T00:16:37.353Z,34.77
2023-05-22T00:17:46.096Z,34.78
2023-05-22T00:18:53.693Z,34.77
2023-05-22T00:20:08.535Z,34.77
2023-05-22T00:21:17.582Z,34.77
2023-05-22T00:22:25.433Z,34.77
2023-05-22T00:23:32.645Z,34.78
2023-05-22T00:24:40.456Z,34.78
2023-05-22T00:25:47.988Z,34.79
2023-05-22T00:26:55.757Z,34.79
2023-05-22T00:28:04.905Z,34.79
2023-05-22T00:29:13.714Z,34.79
2023-05-22T00:30:22.502Z,34.78
2023-05-22T00:31:30.111Z,34.78
2023-05-22T00:32:38.234Z,34.78
2023-05-22T00:33:46.136Z,34.78
2023-05-22T00:34:54.125Z,34.79
2023-05-22T00:36:01.520Z,34.80
2023-05-22T00:37:08.943Z,34.80
2023-05-22T00:38:30.778Z,34.79
2023-05-22T00:39:37.705Z,34.80
2023-05-22T00:40:44.923Z,34.79
2023-05-22T00:41:51.808Z,34.80
2023-05-22T00:42:59.037Z,34.80
2023-05-22T00:44:07.462Z,34.81
2023-05-22T00:45:16.926Z,34.81
2023-05-22T00:46:24.113Z,34.81
2023-05-22T00:47:33.879Z,34.81
2023-05-22T00:48:40.723Z,34.81
2023-05-22T00:49:49.278Z,34.81
2023-05-22T00:50:59.041Z,34.81
2023-05-22T00:52:07.395Z,34.81
2023-05-22T00:53:16.591Z,34.81
2023-05-22T00:54:24.794Z,34.81
2023-05-22T00:55:32.147Z,34.81
2023-05-22T00:56:39.330Z,34.81
2023-05-22T00:57:47.652Z,34.81
2023-05-22T00:58:55.899Z,34.81
2023-05-22T01:00:05.518Z,34.81
2023-05-22T01:01:15.691Z,34.81
2023-05-22T01:02:24.417Z,34.82
2023-05-22T01:03:34.029Z,34.82
2023-05-22T01:04:41.051Z,34.83
2023-05-22T01:05:48.000Z,34.83
2023-05-22T01:06:56.478Z,34.83
2023-05-22T01:08:04.224Z,34.83
2023-05-22T01:09:12.494Z,34.84
2023-05-22T01:10:20.089Z,34.84
2023-05-22T01:11:39.957Z,34.84
2023-05-22T01:13:26.236Z,34.83
2023-05-22T01:15:08.424Z,34.83
2023-05-22T01:16:31.646Z,34.83
2023-05-22T01:18:06.040Z,34.83
2023-05-22T01:19:55.352Z,34.83
2023-05-22T01:21:23.934Z,34.82
2023-05-22T01:23:07.893Z,34.82
2023-05-22T01:24:53.921Z,34.82
2023-05-22T01:26:22.851Z,34.82
2023-05-22T01:27:58.621Z,34.82
2023-05-22T01:29:44.910Z,34.81
2023-05-22T01:31:04.884Z,34.81
2023-05-22T01:32:14.513Z,34.81
2023-05-22T01:33:23.376Z,34.83
2023-05-22T01:34:33.389Z,34.83
2023-05-22T01:35:40.945Z,34.83
2023-05-22T01:36:49.846Z,34.83
2023-05-22T01:37:58.341Z,34.84
2023-05-22T01:39:08.425Z,34.84
2023-05-22T01:40:17.058Z,34.84
2023-05-22T01:41:24.815Z,34.85
2023-05-22T01:42:32.432Z,34.84
2023-05-22T01:43:41.857Z,34.85
2023-05-22T01:44:53.002Z,34.84
2023-05-22T01:46:04.041Z,34.84
2023-05-22T01:47:12.182Z,34.85
2023-05-22T01:48:20.914Z,34.86
2023-05-22T01:49:31.227Z,34.86
2023-05-22T01:50:39.085Z,34.86
2023-05-22T01:52:14.058Z,34.86
2023-05-22T01:53:32.254Z,34.86
2023-05-22T01:54:44.652Z,34.86
2023-05-22T01:56:18.182Z,34.86
2023-05-22T01:57:39.451Z,34.86
2023-05-22T01:59:13.710Z,34.86
2023-05-22T02:00:22.818Z,34.85
2023-05-22T02:01:31.502Z,34.85
2023-05-22T02:02:40.660Z,34.86
2023-05-22T02:03:49.105Z,34.87
2023-05-22T02:04:59.920Z,34.87
2023-05-22T02:06:09.598Z,34.87
2023-05-22T02:07:18.989Z,34.88
2023-05-22T02:08:28.067Z,34.87
2023-05-22T02:09:37.222Z,34.87
2023-05-22T02:10:45.801Z,34.88
2023-05-22T02:11:53.852Z,34.89
2023-05-22T02:13:02.364Z,34.89
2023-05-22T02:14:10.827Z,34.90
2023-05-22T02:15:19.202Z,34.90
2023-05-22T02:16:26.909Z,34.90
2023-05-22T02:17:41.814Z,34.91
2023-05-22T02:18:50.240Z,34.92
2023-05-22T02:19:58.012Z,34.92
2023-05-22T02:21:10.737Z,34.92
2023-05-22T02:22:19.393Z,34.93
2023-05-22T02:23:27.292Z,34.94
2023-05-22T02:24:38.415Z,34.93
2023-05-22T02:25:46.864Z,34.93
2023-05-22T02:26:56.069Z,34.93
2023-05-22T02:28:03.375Z,34.93
2023-05-22T02:29:10.860Z,34.93
2023-05-22T02:30:19.226Z,34.93
2023-05-22T02:31:30.089Z,34.93
2023-05-22T02:32:37.896Z,34.94
2023-05-22T02:33:44.711Z,34.94
2023-05-22T02:34:53.444Z,34.95
2023-05-22T02:36:01.863Z,34.94
2023-05-22T02:37:10.393Z,34.95
2023-05-22T02:38:17.922Z,34.95
2023-05-22T02:39:26.026Z,34.95
2023-05-22T02:40:34.162Z,34.95
2023-05-22T02:41:41.656Z,34.95
2023-05-22T02:42:49.124Z,34.95
2023-05-22T02:43:57.636Z,34.95
2023-05-22T02:45:05.409Z,34.95
2023-05-22T02:46:13.820Z,34.95
2023-05-22T02:47:23.109Z,34.95
2023-05-22T02:48:31.243Z,34.95
2023-05-22T02:49:39.392Z,34.94
2023-05-22T02:50:46.715Z,34.95
2023-05-22T02:51:55.018Z,34.95
2023-05-22T02:53:03.821Z,34.95
2023-05-22T02:54:12.917Z,34.96
2023-05-22T02:55:21.402Z,34.96
2023-05-22T02:56:30.256Z,34.96
2023-05-22T02:57:38.232Z,34.96
2023-05-22T02:58:46.273Z,34.96
2023-05-22T02:59:56.286Z,34.96
2023-05-22T03:01:05.133Z,34.96
2023-05-22T03:02:14.209Z,34.96
2023-05-22T03:03:22.746Z,34.96
2023-05-22T03:04:32.386Z,34.96
2023-05-22T03:05:39.734Z,34.97
2023-05-22T03:06:48.854Z,34.97
2023-05-22T03:07:57.400Z,34.97
2023-05-22T03:09:06.388Z,34.98
2023-05-22T03:10:14.548Z,34.97
2023-05-22T03:11:23.979Z,34.97
2023-05-22T03:12:32.477Z,34.98
2023-05-22T03:13:40.202Z,34.97
2023-05-22T03:14:49.734Z,34.97
2023-05-22T03:15:58.430Z,34.97
2023-05-22T03:17:06.128Z,34.97
2023-05-22T03:18:13.400Z,34.97
2023-05-22T03:19:20.614Z,34.98
2023-05-22T03:20:28.545Z,34.98
2023-05-22T03:21:35.667Z,34.98
2023-05-22T03:22:42.549Z,34.98
2023-05-22T03:23:50.259Z,34.98
2023-05-22T03:24:57.257Z,34.98
2023-05-22T03:26:04.618Z,34.98
2023-05-22T03:27:18.227Z,34.98
2023-05-22T03:28:27.350Z,34.99
2023-05-22T03:29:34.555Z,34.98
2023-05-22T03:30:43.105Z,34.99
2023-05-22T03:31:59.176Z,34.99
2023-05-22T03:33:08.148Z,34.99
2023-05-22T03:34:15.806Z,35.00
2023-05-22T03:35:27.134Z,35.00
2023-05-22T03:36:37.221Z,35.00
2023-05-22T03:37:45.431Z,35.00
2023-05-22T03:38:54.546Z,35.00
2023-05-22T03:40:02.775Z,35.00
2023-05-22T03:41:11.417Z,35.01
2023-05-22T03:42:19.068Z,35.01
2023-05-22T03:43:26.307Z,35.01
2023-05-22T03:44:34.736Z,35.01
2023-05-22T03:45:42.068Z,35.01
2023-05-22T03:46:48.855Z,35.01
2023-05-22T03:47:56.961Z,35.01
2023-05-22T03:49:05.522Z,35.00
2023-05-22T03:50:14.346Z,35.01
2023-05-22T03:51:22.718Z,35.01
2023-05-22T03:52:31.274Z,35.00
2023-05-22T03:53:39.771Z,35.00
2023-05-22T03:54:47.880Z,35.01
2023-05-22T03:55:56.356Z,35.01
2023-05-22T03:57:05.745Z,35.01
2023-05-22T03:58:13.657Z,35.01
2023-05-22T03:59:20.634Z,35.02
2023-05-22T04:00:29.705Z,35.02
2023-05-22T04:01:37.490Z,35.02
2023-05-22T04:02:46.386Z,35.03
2023-05-22T04:03:54.696Z,35.03
2023-05-22T04:05:02.324Z,35.03
2023-05-22T04:06:10.958Z,35.03
2023-05-22T04:07:22.054Z,35.03
2023-05-22T04:08:30.921Z,35.03
2023-05-22T04:09:39.958Z,35.03
2023-05-22T04:10:48.145Z,35.03
2023-05-22T04:11:58.237Z,35.04
2023-05-22T04:13:06.365Z,35.05
2023-05-22T04:14:13.523Z,35.04
2023-05-22T04:15:20.402Z,35.05
2023-05-22T04:16:31.375Z,35.05
2023-05-22T04:17:41.537Z,35.05
2023-05-22T04:18:49.871Z,35.04
2023-05-22T04:19:59.505Z,35.05
2023-05-22T04:21:09.950Z,35.05
2023-05-22T04:22:20.717Z,35.05
2023-05-22T04:23:29.546Z,35.05
2023-05-22T04:24:36.868Z,35.05
2023-05-22T04:25:43.690Z,35.05
2023-05-22T04:26:52.081Z,35.05
2023-05-22T04:28:01.607Z,35.04
2023-05-22T04:29:11.845Z,35.04
2023-05-22T04:30:20.624Z,35.04
2023-05-22T04:31:28.823Z,35.03
2023-05-22T04:32:38.282Z,35.04
2023-05-22T04:33:49.743Z,35.04
2023-05-22T04:34:59.609Z,35.05
2023-05-22T04:36:09.461Z,35.06
2023-05-22T04:37:19.596Z,35.06
2023-05-22T04:38:27.729Z,35.06
2023-05-22T04:39:35.948Z,35.06
2023-05-22T04:40:43.090Z,35.06
2023-05-22T04:41:51.504Z,35.06
2023-05-22T04:43:01.918Z,35.06
2023-05-22T04:44:11.083Z,35.06
2023-05-22T04:45:20.885Z,35.06
2023-05-22T04:46:30.246Z,35.07
2023-05-22T04:47:39.383Z,35.07
2023-05-22T04:48:46.895Z,35.06
2023-05-22T04:49:55.069Z,35.06
2023-05-22T04:51:04.086Z,35.07
2023-05-22T04:52:16.533Z,35.07
2023-05-22T04:53:25.277Z,35.07
2023-05-22T04:54:33.773Z,35.07
2023-05-22T04:55:41.802Z,35.07
2023-05-22T04:56:49.760Z,35.07
2023-05-22T04:57:57.558Z,35.08
2023-05-22T04:59:06.750Z,35.08
2023-05-22T05:00:16.758Z,35.08
2023-05-22T05:01:26.229Z,35.09
2023-05-22T05:02:34.424Z,35.09
2023-05-22T05:03:41.772Z,35.09
2023-05-22T05:04:50.033Z,35.09
2023-05-22T05:05:58.505Z,35.10
2023-05-22T05:07:08.268Z,35.09
2023-05-22T05:08:16.162Z,35.09
2023-05-22T05:09:23.312Z,35.09
2023-05-22T05:10:31.170Z,35.09
2023-05-22T05:11:39.639Z,35.09
2023-05-22T05:12:46.838Z,35.10
2023-05-22T05:13:56.288Z,35.10
2023-05-22T05:15:04.946Z,35.10
2023-05-22T05:16:13.115Z,35.11
2023-05-22T05:17:20.906Z,35.10
2023-05-22T05:18:29.522Z,35.11
2023-05-22T05:19:37.460Z,35.10
2023-05-22T05:20:44.503Z,35.10
2023-05-22T05:21:54.115Z,35.10
2023-05-22T05:23:02.678Z,35.11
2023-05-22T05:24:12.110Z,35.12
2023-05-22T05:25:19.406Z,35.11
2023-05-22T05:26:29.082Z,35.12
2023-05-22T05:27:37.820Z,35.11
2023-05-22T05:28:45.205Z,35.11
2023-05-22T05:29:52.347Z,35.11
2023-05-22T05:31:05.349Z,35.12
2023-05-22T05:32:33.594Z,35.12
2023-05-22T05:33:52.284Z,35.11
2023-05-22T05:35:19.674Z,35.11
2023-05-22T05:36:31.955Z,35.10
2023-05-22T05:37:39.833Z,35.11
2023-05-22T05:38:47.628Z,35.11
2023-05-22T05:39:56.118Z,35.11
2023-05-22T05:41:03.308Z,35.11
2023-05-22T05:42:11.607Z,35.11
2023-05-22T05:43:19.367Z,35.11
2023-05-22T05:44:27.346Z,35.11
2023-05-22T05:45:35.075Z,35.12
2023-05-22T05:46:42.541Z,35.12
2023-05-22T05:47:54.262Z,35.11
2023-05-22T05:49:03.006Z,35.12
2023-05-22T05:50:11.484Z,35.11
2023-05-22T05:51:19.970Z,35.12
2023-05-22T05:52:28.784Z,35.12
2023-05-22T05:53:38.956Z,35.13
2023-05-22T05:54:48.598Z,35.13
2023-05-22T05:55:59.712Z,35.13
2023-05-22T05:57:11.694Z,35.13
2023-05-22T05:58:20.998Z,35.13
2023-05-22T05:59:40.870Z,35.13
2023-05-22T06:01:08.757Z,35.13
2023-05-22T06:02:17.652Z,35.13
2023-05-22T06:03:27.441Z,35.14
2023-05-22T06:04:51.063Z,35.13
2023-05-22T06:05:59.451Z,35.13
2023-05-22T06:07:27.310Z,35.13
2023-05-22T06:08:36.757Z,35.13
2023-05-22T06:09:44.317Z,35.13
2023-05-22T06:11:11.674Z,35.12
2023-05-22T06:12:29.746Z,35.12
2023-05-22T06:13:38.415Z,35.12
2023-05-22T06:14:47.009Z,35.12
2023-05-22T06:15:57.602Z,35.13
2023-05-22T06:17:07.055Z,35.13
2023-05-22T06:18:16.282Z,35.13
2023-05-22T06:19:23.275Z,35.13
2023-05-22T06:20:31.201Z,35.13
2023-05-22T06:21:38.083Z,35.13
2023-05-22T06:22:45.496Z,35.14
2023-05-22T06:23:53.123Z,35.14
2023-05-22T06:25:00.417Z,35.14
2023-05-22T06:26:07.964Z,35.14
2023-05-22T06:27:16.432Z,35.15
2023-05-22T06:28:23.712Z,35.15
2023-05-22T06:29:31.251Z,35.15
2023-05-22T06:30:40.517Z,35.15
2023-05-22T06:31:51.494Z,35.15
2023-05-22T06:32:58.991Z,35.15
2023-05-22T06:34:06.486Z,35.15
2023-05-22T06:35:15.254Z,35.15
2023-05-22T06:36:22.823Z,35.15
2023-05-22T06:37:33.351Z,35.15
2023-05-22T06:38:40.726Z,35.15
2023-05-22T06:39:53.273Z,35.15
2023-05-22T06:41:13.252Z,35.15
2023-05-22T06:42:21.393Z,35.15
2023-05-22T06:43:49.060Z,35.15
2023-05-22T06:45:02.174Z,35.15
2023-05-22T06:46:15.660Z,35.15
2023-05-22T06:47:32.601Z,35.15
2023-05-22T06:48:39.897Z,35.15
2023-05-22T06:49:56.779Z,35.15
2023-05-22T06:51:04.604Z,35.15
2023-05-22T06:52:11.898Z,35.15
2023-05-22T06:53:19.331Z,35.16
2023-05-22T06:54:30.405Z,35.16
2023-05-22T06:55:37.993Z,35.17
2023-05-22T06:56:52.437Z,35.16
2023-05-22T06:58:01.605Z,35.16
2023-05-22T06:59:10.361Z,35.16
2023-05-22T07:00:38.142Z,35.15
2023-05-22T07:01:52.850Z,35.15
2023-05-22T07:03:09.692Z,35.16
2023-05-22T07:04:26.590Z,35.16
2023-05-22T07:05:40.152Z,35.16
2023-05-22T07:06:47.800Z,35.16
2023-05-22T07:07:55.234Z,35.16
2023-05-22T07:09:04.289Z,35.16
2023-05-22T07:10:12.884Z,35.16
2023-05-22T07:11:20.920Z,35.16
2023-05-22T07:12:29.395Z,35.16
2023-05-22T07:13:37.897Z,35.16
2023-05-22T07:14:45.088Z,35.17
2023-05-22T07:15:53.634Z,35.19
2023-05-22T07:17:00.625Z,35.18
2023-05-22T07:18:13.406Z,35.19
2023-05-22T07:19:22.191Z,35.19
2023-05-22T07:20:30.617Z,35.19
2023-05-22T07:21:46.538Z,35.20
2023-05-22T07:22:55.586Z,35.20
2023-05-22T07:24:09.289Z,35.21
2023-05-22T07:25:19.779Z,35.21
2023-05-22T07:26:29.889Z,35.20
2023-05-22T07:27:42.559Z,35.21
2023-05-22T07:28:53.980Z,35.21
2023-05-22T07:30:02.133Z,35.21
2023-05-22T07:31:10.854Z,35.21
2023-05-22T07:32:17.935Z,35.21
2023-05-22T07:33:26.617Z,35.21
2023-05-22T07:34:35.744Z,35.21
2023-05-22T07:35:46.877Z,35.21
2023-05-22T07:36:56.208Z,35.21
2023-05-22T07:38:04.391Z,35.21
2023-05-22T07:39:13.191Z,35.21
2023-05-22T07:40:21.343Z,35.21
2023-05-22T07:41:32.109Z,35.21
2023-05-22T07:42:40.768Z,35.21
2023-05-22T07:43:48.085Z,35.21
2023-05-22T07:44:58.127Z,35.22
2023-05-22T07:46:08.652Z,35.22
2023-05-22T07:47:22.334Z,35.22
2023-05-22T07:48:30.522Z,35.22
2023-05-22T07:49:37.736Z,35.22
2023-05-22T07:50:46.659Z,35.23
2023-05-22T07:51:55.222Z,35.23
2023-05-22T07:53:06.684Z,35.23
2023-05-22T07:54:17.627Z,35.24
2023-05-22T07:55:26.796Z,35.24
2023-05-22T07:56:35.557Z,35.24
2023-05-22T07:57:46.597Z,35.24
2023-05-22T07:59:04.401Z,35.24
2023-05-22T08:00:14.048Z,35.24
2023-05-22T08:01:21.627Z,35.24
2023-05-22T08:02:29.543Z,35.24
2023-05-22T08:03:38.587Z,35.24
2023-05-22T08:04:45.864Z,35.25
2023-05-22T08:05:53.123Z,35.25
2023-05-22T08:07:00.572Z,35.24
2023-05-22T08:08:10.807Z,35.24
2023-05-22T08:09:18.147Z,35.25
2023-05-22T08:10:25.482Z,35.24
2023-05-22T08:11:35.157Z,35.24
2023-05-22T08:12:43.584Z,35.24
2023-05-22T08:13:51.913Z,35.25
2023-05-22T08:14:59.996Z,35.25
2023-05-22T08:16:08.683Z,35.25
2023-05-22T08:17:16.825Z,35.25
2023-05-22T08:18:24.137Z,35.24
2023-05-22T08:19:31.756Z,35.24
2023-05-22T08:20:39.833Z,35.25
2023-05-22T08:21:48.111Z,35.25
2023-05-22T08:22:56.672Z,35.25
2023-05-22T08:24:04.558Z,35.26
2023-05-22T08:25:11.843Z,35.26
2023-05-22T08:26:20.530Z,35.26
2023-05-22T08:27:29.041Z,35.26
2023-05-22T08:28:37.784Z,35.26
2023-05-22T08:29:44.384Z,35.25
2023-05-22T08:30:52.508Z,35.25
2023-05-22T08:32:00.008Z,35.25
2023-05-22T08:33:07.897Z,35.26
2023-05-22T08:34:16.088Z,35.26
2023-05-22T08:35:23.617Z,35.27
2023-05-22T08:36:34.297Z,35.27
2023-05-22T08:37:41.815Z,35.26
2023-05-22T08:38:50.602Z,35.27
2023-05-22T08:39:58.469Z,35.27
2023-05-22T08:41:06.459Z,35.27
2023-05-22T08:42:15.067Z,35.27
2023-05-22T08:43:23.876Z,35.28
2023-05-22T08:44:33.004Z,35.28
2023-05-22T08:45:43.585Z,35.28
2023-05-22T08:46:51.062Z,35.28
2023-05-22T08:47:59.219Z,35.28
2023-05-22T08:49:13.649Z,35.28
2023-05-22T08:50:20.920Z,35.28
2023-05-22T08:51:30.499Z,35.28
2023-05-22T08:52:45.544Z,35.28
2023-05-22T08:53:54.990Z,35.28
2023-05-22T08:55:01.712Z,35.28
2023-05-22T08:56:10.534Z,35.28
2023-05-22T08:57:18.117Z,35.28
2023-05-22T08:58:26.278Z,35.28
2023-05-22T08:59:33.589Z,35.29
2023-05-22T09:00:40.835Z,35.30
2023-05-22T09:01:48.330Z,35.30
2023-05-22T09:02:57.820Z,35.29
2023-05-22T09:04:05.542Z,35.30
2023-05-22T09:05:13.452Z,35.31
2023-05-22T09:06:21.184Z,35.30
2023-05-22T09:07:29.656Z,35.30
2023-05-22T09:08:37.242Z,35.30
2023-05-22T09:09:44.150Z,35.30
2023-05-22T09:10:51.913Z,35.30
2023-05-22T09:11:59.874Z,35.30
2023-05-22T09:13:10.048Z,35.30
2023-05-22T09:14:17.321Z,35.30
2023-05-22T09:15:24.173Z,35.30
2023-05-22T09:16:31.995Z,35.31
2023-05-22T09:17:43.101Z,35.31
2023-05-22T09:18:52.520Z,35.31
2023-05-22T09:20:03.462Z,35.32
2023-05-22T09:21:22.155Z,35.32
2023-05-22T09:22:40.597Z,35.32
2023-05-22T09:23:52.976Z,35.32
2023-05-22T09:25:01.751Z,35.32
2023-05-22T09:26:09.632Z,35.31
2023-05-22T09:27:18.188Z,35.32
2023-05-22T09:28:27.984Z,35.32
2023-05-22T09:29:50.772Z,35.32
2023-05-22T09:30:57.700Z,35.31
2023-05-22T09:32:05.102Z,35.32
2023-05-22T09:33:15.570Z,35.32
2023-05-22T09:34:23.980Z,35.33
2023-05-22T09:35:38.014Z,35.33
2023-05-22T09:36:44.840Z,35.33
2023-05-22T09:37:52.358Z,35.32
2023-05-22T09:38:59.241Z,35.33
2023-05-22T09:40:10.896Z,35.33
2023-05-22T09:41:27.789Z,35.33
2023-05-22T09:42:38.051Z,35.33
2023-05-22T09:43:53.593Z,35.32
2023-05-22T09:45:09.429Z,35.33
2023-05-22T09:46:17.175Z,35.33
2023-05-22T09:47:25.836Z,35.32
2023-05-22T09:48:38.886Z,35.33
2023-05-22T09:49:47.420Z,35.34
2023-05-22T09:50:58.223Z,35.34
2023-05-22T09:52:06.059Z,35.34
2023-05-22T09:53:14.797Z,35.34
2023-05-22T09:54:23.660Z,35.34
2023-05-22T09:55:31.826Z,35.34
2023-05-22T09:56:40.258Z,35.34
2023-05-22T09:57:50.829Z,35.34
2023-05-22T09:59:00.832Z,35.34
2023-05-22T10:00:12.851Z,35.34
2023-05-22T10:01:20.684Z,35.34
2023-05-22T10:02:30.460Z,35.33
2023-05-22T10:03:40.564Z,35.32
2023-05-22T10:04:47.355Z,35.33
2023-05-22T10:05:57.476Z,35.33
2023-05-22T10:07:05.597Z,35.34
2023-05-22T10:08:15.879Z,35.33
2023-05-22T10:09:26.374Z,35.33
2023-05-22T10:10:34.541Z,35.33
2023-05-22T10:11:41.734Z,35.33
2023-05-22T10:13:08.430Z,35.33
2023-05-22T10:14:16.641Z,35.33
2023-05-22T10:15:24.993Z,35.33
2023-05-22T10:16:33.756Z,35.33
2023-05-22T10:17:41.253Z,35.33
2023-05-22T10:18:50.741Z,35.33
2023-05-22T10:19:58.912Z,35.33
2023-05-22T10:21:08.351Z,35.33
2023-05-22T10:22:23.039Z,35.33
2023-05-22T10:23:31.393Z,35.34
2023-05-22T10:24:39.854Z,35.34
2023-05-22T10:25:47.419Z,35.35
2023-05-22T10:26:55.852Z,35.35
2023-05-22T10:28:03.385Z,35.34
2023-05-22T10:29:19.839Z,35.34
2023-05-22T10:30:54.511Z,35.34
2023-05-22T10:32:35.609Z,35.34
2023-05-22T10:33:48.938Z,35.33
2023-05-22T10:35:02.572Z,35.33
2023-05-22T10:36:12.000Z,35.34
2023-05-22T10:37:39.529Z,35.34
2023-05-22T10:39:08.996Z,35.34
2023-05-22T10:40:30.030Z,35.34
2023-05-22T10:41:37.160Z,35.33
2023-05-22T10:42:45.118Z,35.33
2023-05-22T10:43:52.399Z,35.34
2023-05-22T10:44:58.831Z,35.34
2023-05-22T10:46:07.158Z,35.34
2023-05-22T10:47:17.720Z,35.34
2023-05-22T10:48:24.611Z,35.35
2023-05-22T10:49:32.112Z,35.35
2023-05-22T10:50:39.287Z,35.35
2023-05-22T10:51:47.387Z,35.35
2023-05-22T10:53:15.924Z,35.35
2023-05-22T10:54:43.462Z,35.34
2023-05-22T10:56:04.124Z,35.34
2023-05-22T10:57:18.494Z,35.34
2023-05-22T10:58:32.757Z,35.35
2023-05-22T10:59:40.430Z,35.35
2023-05-22T11:00:47.501Z,35.35
2023-05-22T11:02:03.552Z,35.35
2023-05-22T11:03:17.760Z,35.35
2023-05-22T11:04:28.716Z,35.35
2023-05-22T11:05:35.848Z,35.35
2023-05-22T11:07:03.703Z,35.36
2023-05-22T11:08:40.013Z,35.35
2023-05-22T11:09:49.893Z,35.34
2023-05-22T11:10:58.479Z,35.35
2023-05-22T11:12:22.491Z,35.36
2023-05-22T11:13:30.254Z,35.35
2023-05-22T11:14:38.571Z,35.36
2023-05-22T11:15:48.790Z,35.36
2023-05-22T11:17:01.972Z,35.36
2023-05-22T11:18:09.032Z,35.37
2023-05-22T11:20:27.647Z,35.37
2023-05-22T11:21:46.974Z,35.37
2023-05-22T11:23:06.479Z,35.37
2023-05-22T11:24:15.530Z,35.37
2023-05-22T11:25:23.337Z,35.37
2023-05-22T11:26:31.825Z,35.37
2023-05-22T11:27:40.950Z,35.37
2023-05-22T11:28:53.906Z,35.37
2023-05-22T11:30:03.679Z,35.37
2023-05-22T11:31:11.543Z,35.37
2023-05-22T11:32:22.297Z,35.37
2023-05-22T11:33:30.351Z,35.37
2023-05-22T11:34:38.244Z,35.37
2023-05-22T11:35:47.201Z,35.37
2023-05-22T11:37:01.653Z,35.38
2023-05-22T11:38:09.760Z,35.38
2023-05-22T11:39:18.869Z,35.38
2023-05-22T11:40:28.969Z,35.38
2023-05-22T11:41:37.072Z,35.38
2023-05-22T11:42:44.947Z,35.38
2023-05-22T11:43:53.122Z,35.38
2023-05-22T11:45:01.957Z,35.38
2023-05-22T11:46:13.278Z,35.39
2023-05-22T11:47:22.379Z,35.39
2023-05-22T11:48:32.070Z,35.39
2023-05-22T11:49:39.353Z,35.39
2023-05-22T11:50:46.985Z,35.39
2023-05-22T11:51:55.033Z,35.40
2023-05-22T11:53:04.487Z,35.40
2023-05-22T11:54:12.633Z,35.39
2023-05-22T11:55:20.463Z,35.39
2023-05-22T11:56:27.939Z,35.40
2023-05-22T11:57:35.992Z,35.40
2023-05-22T11:58:42.693Z,35.40
2023-05-22T11:59:49.702Z,35.41
2023-05-22T12:01:03.504Z,35.41
2023-05-22T12:02:11.697Z,35.41
2023-05-22T12:03:19.872Z,35.41
2023-05-22T12:04:28.616Z,35.41
2023-05-22T12:05:36.112Z,35.41
2023-05-22T12:06:43.615Z,35.42
2023-05-22T12:07:51.229Z,35.41
2023-05-22T12:08:59.339Z,35.42
2023-05-22T12:10:08.520Z,35.42
2023-05-22T12:11:16.638Z,35.42
2023-05-22T12:12:24.254Z,35.42
2023-05-22T12:13:32.299Z,35.42
2023-05-22T12:14:39.824Z,35.42
2023-05-22T12:15:48.576Z,35.42
2023-05-22T12:16:57.802Z,35.42
2023-05-22T12:18:05.472Z,35.42
2023-05-22T12:19:15.081Z,35.42
2023-05-22T12:20:22.843Z,35.42
2023-05-22T12:21:30.537Z,35.42
2023-05-22T12:22:44.634Z,35.42
2023-05-22T12:23:52.500Z,35.43
2023-05-22T12:25:00.344Z,35.42
2023-05-22T12:26:11.429Z,35.42
2023-05-22T12:27:19.658Z,35.42
2023-05-22T12:28:28.012Z,35.43
2023-05-22T12:29:36.254Z,35.42
2023-05-22T12:30:44.034Z,35.42
2023-05-22T12:31:51.559Z,35.42
2023-05-22T12:32:58.819Z,35.42
2023-05-22T12:34:08.541Z,35.42
2023-05-22T12:35:20.522Z,35.40
2023-05-22T12:36:37.292Z,35.39
2023-05-22T12:37:50.773Z,35.39
2023-05-22T12:38:59.628Z,35.37
2023-05-22T12:40:07.598Z,35.35
2023-05-22T12:41:16.412Z,35.34
2023-05-22T12:42:23.560Z,35.32
2023-05-22T12:43:31.293Z,35.31
2023-05-22T12:44:38.549Z,35.29
2023-05-22T12:45:46.110Z,35.27
2023-05-22T12:46:55.451Z,35.26
2023-05-22T12:48:03.336Z,35.24
2023-05-22T12:49:12.786Z,35.22
2023-05-22T12:50:20.268Z,35.20
2023-05-22T12:51:32.292Z,35.18
2023-05-22T12:52:38.936Z,35.16
2023-05-22T12:53:46.083Z,35.14
2023-05-22T12:54:53.612Z,35.13
2023-05-22T12:56:01.454Z,35.11
2023-05-22T12:57:09.941Z,35.10
2023-05-22T12:58:18.097Z,35.09
2023-05-22T12:59:25.925Z,35.07
2023-05-22T13:00:33.754Z,35.05
2023-05-22T13:01:40.741Z,35.02
2023-05-22T13:02:49.201Z,35.01
2023-05-22T13:03:56.002Z,35.00
2023-05-22T13:05:03.616Z,34.99
2023-05-22T13:06:12.320Z,34.97
2023-05-22T13:07:20.837Z,34.95
2023-05-22T13:08:29.503Z,34.93
2023-05-22T13:09:37.833Z,34.92
2023-05-22T13:10:46.271Z,34.90
2023-05-22T13:11:55.402Z,34.89
2023-05-22T13:13:02.871Z,34.87
2023-05-22T13:14:11.150Z,34.86
2023-05-22T13:15:19.544Z,34.85
2023-05-22T13:16:27.081Z,34.84
2023-05-22T13:17:35.222Z,34.82
2023-05-22T13:18:42.712Z,34.81
2023-05-22T13:19:50.914Z,34.80
2023-05-22T13:21:00.402Z,34.80
2023-05-22T13:22:10.122Z,34.79
2023-05-22T13:23:17.588Z,34.78
2023-05-22T13:24:25.148Z,34.76
2023-05-22T13:25:32.794Z,34.76
2023-05-22T13:26:39.887Z,34.75
2023-05-22T13:27:47.510Z,34.74
2023-05-22T13:28:54.824Z,34.73
2023-05-22T13:30:02.618Z,34.72
2023-05-22T13:31:11.595Z,34.72
2023-05-22T13:32:23.775Z,34.71
2023-05-22T13:33:31.783Z,34.70
2023-05-22T13:34:39.072Z,34.69
2023-05-22T13:35:47.641Z,34.69
2023-05-22T13:36:55.272Z,34.69
2023-05-22T13:38:03.376Z,34.68
2023-05-22T13:39:11.516Z,34.67
2023-05-22T13:40:20.330Z,34.67
2023-05-22T13:41:28.731Z,34.67
2023-05-22T13:42:36.661Z,34.66
2023-05-22T13:43:44.408Z,34.66
2023-05-22T13:44:52.338Z,34.66
2023-05-22T13:46:01.361Z,34.65
2023-05-22T13:47:09.554Z,34.64
2023-05-22T13:48:17.260Z,34.64
2023-05-22T13:49:24.287Z,34.63
2023-05-22T13:50:31.891Z,34.63
2023-05-22T13:51:39.072Z,34.62
2023-05-22T13:52:47.041Z,34.61
2023-05-22T13:53:54.671Z,34.61
2023-05-22T13:55:04.490Z,34.61
2023-05-22T13:56:12.615Z,34.61
2023-05-22T13:57:21.373Z,34.60
2023-05-22T13:58:29.864Z,34.60
2023-05-22T13:59:37.104Z,34.60
2023-05-22T14:00:44.042Z,34.59
2023-05-22T14:01:52.495Z,34.59
2023-05-22T14:03:00.016Z,34.59
2023-05-22T14:04:07.462Z,34.59
2023-05-22T14:05:15.593Z,34.59
2023-05-22T14:06:23.456Z,34.59
2023-05-22T14:07:31.607Z,34.58
2023-05-22T14:08:38.952Z,34.58
2023-05-22T14:09:46.980Z,34.58
2023-05-22T14:10:54.500Z,34.57
2023-05-22T14:12:02.653Z,34.57
2023-05-22T14:13:10.211Z,34.57
2023-05-22T14:14:17.687Z,34.57
2023-05-22T14:15:25.205Z,34.57
2023-05-22T14:16:33.720Z,34.57
2023-05-22T14:17:41.329Z,34.57
2023-05-22T14:18:48.772Z,34.56
2023-05-22T14:19:56.073Z,34.56
2023-05-22T14:21:04.640Z,34.56
2023-05-22T14:22:13.133Z,34.56
2023-05-22T14:23:20.407Z,34.55
2023-05-22T14:24:27.630Z,34.55
2023-05-22T14:25:35.403Z,34.55
2023-05-22T14:26:43.252Z,34.55
2023-05-22T14:27:51.316Z,34.56
2023-05-22T14:29:01.070Z,34.55
2023-05-22T14:30:14.733Z,34.56
2023-05-22T14:31:22.556Z,34.55
2023-05-22T14:32:30.078Z,34.55
2023-05-22T14:33:37.845Z,34.55
2023-05-22T14:34:45.112Z,34.55
2023-05-22T14:35:53.543Z,34.54
2023-05-22T14:37:02.333Z,34.54
2023-05-22T14:38:09.539Z,34.54
2023-05-22T14:39:18.985Z,34.54
2023-05-22T14:40:26.534Z,34.54
2023-05-22T14:41:35.158Z,34.54
2023-05-22T14:42:43.498Z,34.54
2023-05-22T14:43:50.334Z,34.54
2023-05-22T14:44:57.863Z,34.54
2023-05-22T14:46:06.394Z,34.54
2023-05-22T14:47:15.467Z,34.54
2023-05-22T14:48:28.428Z,34.54
2023-05-22T14:49:36.964Z,34.54
2023-05-22T14:50:44.224Z,34.54
2023-05-22T14:51:52.313Z,34.53
2023-05-22T14:53:01.253Z,34.54
2023-05-22T14:54:08.682Z,34.54
2023-05-22T14:55:16.273Z,34.54
2023-05-22T14:56:24.377Z,34.54
2023-05-22T14:57:33.163Z,34.53
2023-05-22T14:58:41.326Z,34.53
2023-05-22T14:59:48.271Z,34.53
2023-05-22T15:00:57.421Z,34.53
2023-05-22T15:02:04.143Z,34.53
2023-05-22T15:03:12.644Z,34.53